sensor_id;sensor_type;location;lat;lon;timestamp;temperature;humidity
10538;DHT22;5317;49.048;8.468;2022-11-15T00:00:49;11.60;83.20
10538;DHT22;5317;49.048;8.468;2022-11-15T00:03:17;11.60;83.10
10538;DHT22;5317;49.048;8.468;2022-11-15T00:05:49;11.70;83.10
10538;DHT22;5317;49.048;8.468;2022-11-15T00:08:19;11.70;83.00
10538;DHT22;5317;49.048;8.468;2022-11-15T00:10:54;11.70;82.70
10538;DHT22;5317;49.048;8.468;2022-11-15T00:13:22;11.80;82.70
10538;DHT22;5317;49.048;8.468;2022-11-15T00:15:49;11.80;82.50
10538;DHT22;5317;49.048;8.468;2022-11-15T00:18:18;11.70;82.40
10538;DHT22;5317;49.048;8.468;2022-11-15T00:20:45;11.80;82.30
10538;DHT22;5317;49.048;8.468;2022-11-15T00:23:14;11.80;82.30
10538;DHT22;5317;49.048;8.468;2022-11-15T00:25:42;11.80;82.20
10538;DHT22;5317;49.048;8.468;2022-11-15T00:28:09;11.80;82.20
10538;DHT22;5317;49.048;8.468;2022-11-15T00:30:36;11.80;82.30
10538;DHT22;5317;49.048;8.468;2022-11-15T00:33:04;11.80;82.20
10538;DHT22;5317;49.048;8.468;2022-11-15T00:35:32;11.80;83.10
10538;DHT22;5317;49.048;8.468;2022-11-15T00:38:00;11.80;82.40
10538;DHT22;5317;49.048;8.468;2022-11-15T00:40:30;11.80;82.40
10538;DHT22;5317;49.048;8.468;2022-11-15T00:42:58;11.90;82.40
10538;DHT22;5317;49.048;8.468;2022-11-15T00:45:26;11.90;82.40
10538;DHT22;5317;49.048;8.468;2022-11-15T00:47:53;11.90;82.70
10538;DHT22;5317;49.048;8.468;2022-11-15T00:50:20;11.90;82.90
10538;DHT22;5317;49.048;8.468;2022-11-15T00:52:47;11.90;82.60
10538;DHT22;5317;49.048;8.468;2022-11-15T00:55:16;11.90;82.70
10538;DHT22;5317;49.048;8.468;2022-11-15T00:57:45;11.90;82.90
10538;DHT22;5317;49.048;8.468;2022-11-15T01:00:13;11.90;82.80
10538;DHT22;5317;49.048;8.468;2022-11-15T01:02:41;11.90;82.70
10538;DHT22;5317;49.048;8.468;2022-11-15T01:05:08;11.90;82.60
10538;DHT22;5317;49.048;8.468;2022-11-15T01:07:37;11.90;82.30
10538;DHT22;5317;49.048;8.468;2022-11-15T01:10:05;11.90;82.50
10538;DHT22;5317;49.048;8.468;2022-11-15T01:12:33;11.90;82.60
10538;DHT22;5317;49.048;8.468;2022-11-15T01:15:02;11.90;83.30
10538;DHT22;5317;49.048;8.468;2022-11-15T01:17:30;11.90;82.50
10538;DHT22;5317;49.048;8.468;2022-11-15T01:19:58;11.90;82.70
10538;DHT22;5317;49.048;8.468;2022-11-15T01:22:25;11.90;82.70
10538;DHT22;5317;49.048;8.468;2022-11-15T01:24:52;11.90;82.50
10538;DHT22;5317;49.048;8.468;2022-11-15T01:27:20;11.90;82.50
10538;DHT22;5317;49.048;8.468;2022-11-15T01:29:47;12.00;82.60
10538;DHT22;5317;49.048;8.468;2022-11-15T01:32:16;11.90;82.70
10538;DHT22;5317;49.048;8.468;2022-11-15T01:34:43;11.90;82.90
10538;DHT22;5317;49.048;8.468;2022-11-15T01:37:11;11.90;82.80
10538;DHT22;5317;49.048;8.468;2022-11-15T01:39:38;11.90;82.70
10538;DHT22;5317;49.048;8.468;2022-11-15T01:42:05;11.90;83.40
10538;DHT22;5317;49.048;8.468;2022-11-15T01:44:41;11.90;82.80
10538;DHT22;5317;49.048;8.468;2022-11-15T01:47:14;11.90;83.00
10538;DHT22;5317;49.048;8.468;2022-11-15T01:49:51;11.80;83.30
10538;DHT22;5317;49.048;8.468;2022-11-15T01:52:25;11.80;83.30
10538;DHT22;5317;49.048;8.468;2022-11-15T01:55:01;11.80;84.00
10538;DHT22;5317;49.048;8.468;2022-11-15T01:57:30;11.70;84.20
10538;DHT22;5317;49.048;8.468;2022-11-15T01:59:59;11.80;84.20
10538;DHT22;5317;49.048;8.468;2022-11-15T02:02:31;11.80;84.00
10538;DHT22;5317;49.048;8.468;2022-11-15T02:04:59;11.90;84.00
10538;DHT22;5317;49.048;8.468;2022-11-15T02:07:28;11.90;83.40
10538;DHT22;5317;49.048;8.468;2022-11-15T02:09:59;12.00;83.70
10538;DHT22;5317;49.048;8.468;2022-11-15T02:12:30;11.90;84.00
10538;DHT22;5317;49.048;8.468;2022-11-15T02:14:58;12.00;83.80
10538;DHT22;5317;49.048;8.468;2022-11-15T02:17:38;12.00;83.60
10538;DHT22;5317;49.048;8.468;2022-11-15T02:20:41;12.00;83.60
10538;DHT22;5317;49.048;8.468;2022-11-15T02:27:17;12.10;83.80
10538;DHT22;5317;49.048;8.468;2022-11-15T02:30:22;12.10;83.60
10538;DHT22;5317;49.048;8.468;2022-11-15T02:32:54;12.10;83.50
10538;DHT22;5317;49.048;8.468;2022-11-15T02:35:33;12.10;83.30
10538;DHT22;5317;49.048;8.468;2022-11-15T02:38:16;12.10;83.40
10538;DHT22;5317;49.048;8.468;2022-11-15T02:40:53;12.10;83.50
10538;DHT22;5317;49.048;8.468;2022-11-15T02:43:28;12.10;83.30
10538;DHT22;5317;49.048;8.468;2022-11-15T02:46:31;12.10;83.40
10538;DHT22;5317;49.048;8.468;2022-11-15T02:49:19;12.10;83.30
10538;DHT22;5317;49.048;8.468;2022-11-15T02:51:48;12.10;83.30
10538;DHT22;5317;49.048;8.468;2022-11-15T02:54:20;12.00;83.50
10538;DHT22;5317;49.048;8.468;2022-11-15T02:56:53;12.00;83.40
10538;DHT22;5317;49.048;8.468;2022-11-15T02:59:43;12.00;83.40
10538;DHT22;5317;49.048;8.468;2022-11-15T03:02:41;12.10;83.70
10538;DHT22;5317;49.048;8.468;2022-11-15T03:05:28;12.10;83.90
10538;DHT22;5317;49.048;8.468;2022-11-15T03:08:04;12.10;83.90
10538;DHT22;5317;49.048;8.468;2022-11-15T03:10:42;12.10;83.90
10538;DHT22;5317;49.048;8.468;2022-11-15T03:13:24;12.00;84.10
10538;DHT22;5317;49.048;8.468;2022-11-15T03:15:57;12.00;84.30
10538;DHT22;5317;49.048;8.468;2022-11-15T03:18:33;12.00;84.50
10538;DHT22;5317;49.048;8.468;2022-11-15T03:21:07;12.00;84.50
10538;DHT22;5317;49.048;8.468;2022-11-15T03:23:37;12.10;84.50
10538;DHT22;5317;49.048;8.468;2022-11-15T03:26:08;12.10;84.50
10538;DHT22;5317;49.048;8.468;2022-11-15T03:28:42;12.10;84.20
10538;DHT22;5317;49.048;8.468;2022-11-15T03:31:14;12.20;84.20
10538;DHT22;5317;49.048;8.468;2022-11-15T03:34:00;12.20;84.20
10538;DHT22;5317;49.048;8.468;2022-11-15T03:36:32;12.20;84.20
10538;DHT22;5317;49.048;8.468;2022-11-15T03:39:05;12.30;85.10
10538;DHT22;5317;49.048;8.468;2022-11-15T03:41:37;12.30;84.10
10538;DHT22;5317;49.048;8.468;2022-11-15T03:44:13;12.30;84.00
10538;DHT22;5317;49.048;8.468;2022-11-15T03:46:54;12.30;84.20
10538;DHT22;5317;49.048;8.468;2022-11-15T03:49:32;12.30;85.00
10538;DHT22;5317;49.048;8.468;2022-11-15T03:52:02;12.40;84.20
10538;DHT22;5317;49.048;8.468;2022-11-15T03:54:30;12.40;84.00
10538;DHT22;5317;49.048;8.468;2022-11-15T03:57:04;12.40;84.20
10538;DHT22;5317;49.048;8.468;2022-11-15T03:59:31;12.40;84.10
10538;DHT22;5317;49.048;8.468;2022-11-15T04:01:58;12.50;84.10
10538;DHT22;5317;49.048;8.468;2022-11-15T04:04:25;12.40;84.30
10538;DHT22;5317;49.048;8.468;2022-11-15T04:06:54;12.40;84.80
10538;DHT22;5317;49.048;8.468;2022-11-15T04:09:21;12.40;84.90
10538;DHT22;5317;49.048;8.468;2022-11-15T04:11:48;12.40;85.00
10538;DHT22;5317;49.048;8.468;2022-11-15T04:14:16;12.40;85.00
10538;DHT22;5317;49.048;8.468;2022-11-15T04:16:43;12.40;84.90
10538;DHT22;5317;49.048;8.468;2022-11-15T04:19:10;12.50;84.70
10538;DHT22;5317;49.048;8.468;2022-11-15T04:22:07;12.50;84.80
10538;DHT22;5317;49.048;8.468;2022-11-15T04:24:52;12.50;85.70
10538;DHT22;5317;49.048;8.468;2022-11-15T04:27:19;12.50;84.60
10538;DHT22;5317;49.048;8.468;2022-11-15T04:29:46;12.60;84.80
10538;DHT22;5317;49.048;8.468;2022-11-15T04:32:13;12.60;85.10
10538;DHT22;5317;49.048;8.468;2022-11-15T04:34:40;12.60;85.10
10538;DHT22;5317;49.048;8.468;2022-11-15T04:37:09;12.60;85.10
10538;DHT22;5317;49.048;8.468;2022-11-15T04:39:39;12.50;85.00
10538;DHT22;5317;49.048;8.468;2022-11-15T04:42:07;12.60;85.20
10538;DHT22;5317;49.048;8.468;2022-11-15T04:44:35;12.50;85.00
10538;DHT22;5317;49.048;8.468;2022-11-15T04:47:02;12.60;85.10
10538;DHT22;5317;49.048;8.468;2022-11-15T04:49:30;12.60;85.00
10538;DHT22;5317;49.048;8.468;2022-11-15T04:51:57;12.60;84.80
10538;DHT22;5317;49.048;8.468;2022-11-15T04:54:26;12.60;84.80
10538;DHT22;5317;49.048;8.468;2022-11-15T04:56:53;12.60;84.80
10538;DHT22;5317;49.048;8.468;2022-11-15T04:59:20;12.60;84.80
10538;DHT22;5317;49.048;8.468;2022-11-15T05:01:47;12.60;84.50
10538;DHT22;5317;49.048;8.468;2022-11-15T05:04:15;12.70;84.80
10538;DHT22;5317;49.048;8.468;2022-11-15T05:06:48;12.60;84.70
10538;DHT22;5317;49.048;8.468;2022-11-15T05:09:16;12.70;84.80
10538;DHT22;5317;49.048;8.468;2022-11-15T05:11:45;12.70;84.80
10538;DHT22;5317;49.048;8.468;2022-11-15T05:14:13;12.70;84.70
10538;DHT22;5317;49.048;8.468;2022-11-15T05:16:41;12.70;84.70
10538;DHT22;5317;49.048;8.468;2022-11-15T05:19:09;12.70;84.80
10538;DHT22;5317;49.048;8.468;2022-11-15T05:21:36;12.70;84.70
10538;DHT22;5317;49.048;8.468;2022-11-15T05:24:04;12.70;84.60
10538;DHT22;5317;49.048;8.468;2022-11-15T05:26:32;12.70;84.80
10538;DHT22;5317;49.048;8.468;2022-11-15T05:29:01;12.70;84.70
10538;DHT22;5317;49.048;8.468;2022-11-15T05:31:28;12.70;85.10
10538;DHT22;5317;49.048;8.468;2022-11-15T05:33:56;12.70;85.10
10538;DHT22;5317;49.048;8.468;2022-11-15T05:36:29;12.70;85.20
10538;DHT22;5317;49.048;8.468;2022-11-15T05:39:00;12.70;85.30
10538;DHT22;5317;49.048;8.468;2022-11-15T05:41:32;12.70;85.30
10538;DHT22;5317;49.048;8.468;2022-11-15T05:44:07;12.70;85.20
10538;DHT22;5317;49.048;8.468;2022-11-15T05:46:38;12.70;85.00
10538;DHT22;5317;49.048;8.468;2022-11-15T05:49:10;12.60;85.20
10538;DHT22;5317;49.048;8.468;2022-11-15T05:51:43;12.60;85.20
10538;DHT22;5317;49.048;8.468;2022-11-15T05:54:15;12.60;85.10
10538;DHT22;5317;49.048;8.468;2022-11-15T05:56:44;12.60;85.20
10538;DHT22;5317;49.048;8.468;2022-11-15T05:59:14;12.60;85.20
10538;DHT22;5317;49.048;8.468;2022-11-15T06:01:42;12.60;85.00
10538;DHT22;5317;49.048;8.468;2022-11-15T06:04:09;12.60;84.80
10538;DHT22;5317;49.048;8.468;2022-11-15T06:06:36;12.60;84.60
10538;DHT22;5317;49.048;8.468;2022-11-15T06:09:03;12.60;84.60
10538;DHT22;5317;49.048;8.468;2022-11-15T06:11:30;12.60;84.80
10538;DHT22;5317;49.048;8.468;2022-11-15T06:13:57;12.50;84.50
10538;DHT22;5317;49.048;8.468;2022-11-15T06:16:26;12.50;84.60
10538;DHT22;5317;49.048;8.468;2022-11-15T06:18:53;12.50;84.80
10538;DHT22;5317;49.048;8.468;2022-11-15T06:21:21;12.50;84.50
10538;DHT22;5317;49.048;8.468;2022-11-15T06:23:48;12.60;84.40
10538;DHT22;5317;49.048;8.468;2022-11-15T06:26:15;12.50;84.10
10538;DHT22;5317;49.048;8.468;2022-11-15T06:28:43;12.50;84.00
10538;DHT22;5317;49.048;8.468;2022-11-15T06:31:11;12.50;84.10
10538;DHT22;5317;49.048;8.468;2022-11-15T06:33:40;12.50;84.40
10538;DHT22;5317;49.048;8.468;2022-11-15T06:36:09;12.50;84.30
10538;DHT22;5317;49.048;8.468;2022-11-15T06:38:39;12.50;84.60
10538;DHT22;5317;49.048;8.468;2022-11-15T06:41:07;12.50;84.70
10538;DHT22;5317;49.048;8.468;2022-11-15T06:43:36;12.60;84.80
10538;DHT22;5317;49.048;8.468;2022-11-15T06:46:05;12.60;84.80
10538;DHT22;5317;49.048;8.468;2022-11-15T06:48:33;12.50;84.80
10538;DHT22;5317;49.048;8.468;2022-11-15T06:51:03;12.60;85.10
10538;DHT22;5317;49.048;8.468;2022-11-15T06:53:31;12.60;85.30
10538;DHT22;5317;49.048;8.468;2022-11-15T06:55:59;12.50;85.30
10538;DHT22;5317;49.048;8.468;2022-11-15T06:58:27;12.50;85.10
10538;DHT22;5317;49.048;8.468;2022-11-15T07:00:58;12.50;85.10
10538;DHT22;5317;49.048;8.468;2022-11-15T07:03:27;12.60;85.20
10538;DHT22;5317;49.048;8.468;2022-11-15T07:05:55;12.70;85.00
10538;DHT22;5317;49.048;8.468;2022-11-15T07:08:27;12.60;85.10
10538;DHT22;5317;49.048;8.468;2022-11-15T07:10:58;12.70;85.30
10538;DHT22;5317;49.048;8.468;2022-11-15T07:13:27;12.70;85.30
10538;DHT22;5317;49.048;8.468;2022-11-15T07:16:01;12.60;85.20
10538;DHT22;5317;49.048;8.468;2022-11-15T07:18:29;12.60;85.30
10538;DHT22;5317;49.048;8.468;2022-11-15T07:21:01;12.70;85.20
10538;DHT22;5317;49.048;8.468;2022-11-15T07:23:32;12.80;85.40
10538;DHT22;5317;49.048;8.468;2022-11-15T07:26:00;12.80;85.40
10538;DHT22;5317;49.048;8.468;2022-11-15T07:28:27;12.70;85.20
10538;DHT22;5317;49.048;8.468;2022-11-15T07:30:55;12.80;85.20
10538;DHT22;5317;49.048;8.468;2022-11-15T07:33:22;12.80;85.30
10538;DHT22;5317;49.048;8.468;2022-11-15T07:35:49;12.80;85.30
10538;DHT22;5317;49.048;8.468;2022-11-15T07:38:17;12.80;85.30
10538;DHT22;5317;49.048;8.468;2022-11-15T07:40:47;12.90;85.40
10538;DHT22;5317;49.048;8.468;2022-11-15T07:43:22;12.90;85.30
10538;DHT22;5317;49.048;8.468;2022-11-15T07:45:49;12.90;85.40
10538;DHT22;5317;49.048;8.468;2022-11-15T07:48:16;12.90;85.40
10538;DHT22;5317;49.048;8.468;2022-11-15T07:50:43;13.00;85.60
10538;DHT22;5317;49.048;8.468;2022-11-15T07:53:10;13.00;85.50
10538;DHT22;5317;49.048;8.468;2022-11-15T07:55:39;13.00;85.50
10538;DHT22;5317;49.048;8.468;2022-11-15T07:58:10;13.00;85.70
10538;DHT22;5317;49.048;8.468;2022-11-15T08:00:38;13.10;85.80
10538;DHT22;5317;49.048;8.468;2022-11-15T08:03:07;13.10;85.70
10538;DHT22;5317;49.048;8.468;2022-11-15T08:05:36;13.10;85.80
10538;DHT22;5317;49.048;8.468;2022-11-15T08:08:05;13.10;85.70
10538;DHT22;5317;49.048;8.468;2022-11-15T08:10:33;13.20;85.90
10538;DHT22;5317;49.048;8.468;2022-11-15T08:13:02;13.30;86.00
10538;DHT22;5317;49.048;8.468;2022-11-15T08:15:33;13.30;85.90
10538;DHT22;5317;49.048;8.468;2022-11-15T08:18:02;13.30;85.90
10538;DHT22;5317;49.048;8.468;2022-11-15T08:20:33;13.40;86.10
10538;DHT22;5317;49.048;8.468;2022-11-15T08:23:02;13.50;86.10
10538;DHT22;5317;49.048;8.468;2022-11-15T08:25:31;13.50;86.20
10538;DHT22;5317;49.048;8.468;2022-11-15T08:28:02;13.50;86.10
10538;DHT22;5317;49.048;8.468;2022-11-15T08:30:35;13.50;86.10
10538;DHT22;5317;49.048;8.468;2022-11-15T08:33:10;13.60;86.00
10538;DHT22;5317;49.048;8.468;2022-11-15T08:35:39;13.60;85.90
10538;DHT22;5317;49.048;8.468;2022-11-15T08:38:07;13.70;85.90
10538;DHT22;5317;49.048;8.468;2022-11-15T08:40:35;13.70;85.80
10538;DHT22;5317;49.048;8.468;2022-11-15T08:43:03;13.70;86.00
10538;DHT22;5317;49.048;8.468;2022-11-15T08:45:34;13.80;86.30
10538;DHT22;5317;49.048;8.468;2022-11-15T08:48:03;13.90;86.60
10538;DHT22;5317;49.048;8.468;2022-11-15T08:50:31;13.90;86.10
10538;DHT22;5317;49.048;8.468;2022-11-15T08:53:04;13.90;85.80
10538;DHT22;5317;49.048;8.468;2022-11-15T08:55:36;13.90;86.60
10538;DHT22;5317;49.048;8.468;2022-11-15T08:58:04;14.00;85.60
10538;DHT22;5317;49.048;8.468;2022-11-15T09:00:33;14.10;85.40
10538;DHT22;5317;49.048;8.468;2022-11-15T09:03:04;14.20;85.50
10538;DHT22;5317;49.048;8.468;2022-11-15T09:05:31;14.20;85.50
10538;DHT22;5317;49.048;8.468;2022-11-15T09:07:59;14.30;85.40
10538;DHT22;5317;49.048;8.468;2022-11-15T09:10:26;14.30;85.40
10538;DHT22;5317;49.048;8.468;2022-11-15T09:12:53;14.30;85.20
10538;DHT22;5317;49.048;8.468;2022-11-15T09:15:20;14.40;85.40
10538;DHT22;5317;49.048;8.468;2022-11-15T09:17:49;14.40;85.10
10538;DHT22;5317;49.048;8.468;2022-11-15T09:20:16;14.40;84.90
10538;DHT22;5317;49.048;8.468;2022-11-15T09:22:43;14.50;85.00
10538;DHT22;5317;49.048;8.468;2022-11-15T09:25:11;14.50;84.90
10538;DHT22;5317;49.048;8.468;2022-11-15T09:27:41;14.50;85.00
10538;DHT22;5317;49.048;8.468;2022-11-15T09:30:10;14.50;84.60
10538;DHT22;5317;49.048;8.468;2022-11-15T09:32:37;14.50;84.60
10538;DHT22;5317;49.048;8.468;2022-11-15T09:35:06;14.60;84.50
10538;DHT22;5317;49.048;8.468;2022-11-15T09:37:34;14.60;84.50
10538;DHT22;5317;49.048;8.468;2022-11-15T09:40:01;14.70;84.60
10538;DHT22;5317;49.048;8.468;2022-11-15T09:42:41;14.70;84.70
10538;DHT22;5317;49.048;8.468;2022-11-15T09:45:22;14.80;84.70
10538;DHT22;5317;49.048;8.468;2022-11-15T09:48:30;14.80;84.90
10538;DHT22;5317;49.048;8.468;2022-11-15T09:51:23;14.80;85.50
10538;DHT22;5317;49.048;8.468;2022-11-15T09:54:04;14.80;85.20
10538;DHT22;5317;49.048;8.468;2022-11-15T09:56:40;14.90;85.00
10538;DHT22;5317;49.048;8.468;2022-11-15T09:59:21;14.90;84.90
10538;DHT22;5317;49.048;8.468;2022-11-15T10:02:08;14.90;84.90
10538;DHT22;5317;49.048;8.468;2022-11-15T10:04:43;14.90;84.70
10538;DHT22;5317;49.048;8.468;2022-11-15T10:07:15;14.90;84.30
10538;DHT22;5317;49.048;8.468;2022-11-15T10:09:51;14.90;84.30
10538;DHT22;5317;49.048;8.468;2022-11-15T10:12:22;15.00;85.20
10538;DHT22;5317;49.048;8.468;2022-11-15T10:14:57;15.00;84.80
10538;DHT22;5317;49.048;8.468;2022-11-15T10:17:51;15.00;84.70
10538;DHT22;5317;49.048;8.468;2022-11-15T10:20:33;15.00;84.50
10538;DHT22;5317;49.048;8.468;2022-11-15T10:23:11;15.00;84.40
10538;DHT22;5317;49.048;8.468;2022-11-15T10:25:41;15.00;84.50
10538;DHT22;5317;49.048;8.468;2022-11-15T10:28:13;15.10;84.70
10538;DHT22;5317;49.048;8.468;2022-11-15T10:30:44;15.10;84.50
10538;DHT22;5317;49.048;8.468;2022-11-15T10:33:20;15.10;84.60
10538;DHT22;5317;49.048;8.468;2022-11-15T10:36:15;15.10;84.70
10538;DHT22;5317;49.048;8.468;2022-11-15T10:39:03;15.10;84.50
10538;DHT22;5317;49.048;8.468;2022-11-15T10:41:38;15.20;84.70
10538;DHT22;5317;49.048;8.468;2022-11-15T10:44:17;15.20;83.80
10538;DHT22;5317;49.048;8.468;2022-11-15T10:47:05;15.10;83.90
10538;DHT22;5317;49.048;8.468;2022-11-15T10:49:57;15.20;84.50
10538;DHT22;5317;49.048;8.468;2022-11-15T10:52:27;15.20;84.80
10538;DHT22;5317;49.048;8.468;2022-11-15T10:55:02;15.20;84.80
10538;DHT22;5317;49.048;8.468;2022-11-15T10:57:36;15.20;85.00
10538;DHT22;5317;49.048;8.468;2022-11-15T11:00:07;15.20;85.70
10538;DHT22;5317;49.048;8.468;2022-11-15T11:02:57;15.30;84.40
10538;DHT22;5317;49.048;8.468;2022-11-15T11:05:28;15.30;84.70
10538;DHT22;5317;49.048;8.468;2022-11-15T11:08:00;15.40;84.50
10538;DHT22;5317;49.048;8.468;2022-11-15T11:10:32;15.40;83.80
10538;DHT22;5317;49.048;8.468;2022-11-15T11:13:13;15.50;83.80
10538;DHT22;5317;49.048;8.468;2022-11-15T11:15:42;15.60;84.20
10538;DHT22;5317;49.048;8.468;2022-11-15T11:18:21;15.60;83.70
10538;DHT22;5317;49.048;8.468;2022-11-15T11:20:58;15.70;84.00
10538;DHT22;5317;49.048;8.468;2022-11-15T11:23:38;15.70;83.90
10538;DHT22;5317;49.048;8.468;2022-11-15T11:26:31;15.70;83.30
10538;DHT22;5317;49.048;8.468;2022-11-15T11:29:24;15.80;82.90
10538;DHT22;5317;49.048;8.468;2022-11-15T11:32:09;15.80;83.40
10538;DHT22;5317;49.048;8.468;2022-11-15T11:35:00;15.80;83.50
10538;DHT22;5317;49.048;8.468;2022-11-15T11:37:39;15.80;83.60
10538;DHT22;5317;49.048;8.468;2022-11-15T11:40:28;15.80;83.30
10538;DHT22;5317;49.048;8.468;2022-11-15T11:43:05;15.90;83.50
10538;DHT22;5317;49.048;8.468;2022-11-15T11:46:04;15.90;83.60
10538;DHT22;5317;49.048;8.468;2022-11-15T11:48:45;15.90;83.80
10538;DHT22;5317;49.048;8.468;2022-11-15T11:51:20;16.00;83.90
10538;DHT22;5317;49.048;8.468;2022-11-15T11:53:54;16.00;84.10
10538;DHT22;5317;49.048;8.468;2022-11-15T11:56:27;16.00;84.60
10538;DHT22;5317;49.048;8.468;2022-11-15T11:59:01;16.00;84.80
10538;DHT22;5317;49.048;8.468;2022-11-15T12:01:37;16.00;84.70
10538;DHT22;5317;49.048;8.468;2022-11-15T12:04:13;16.00;84.30
10538;DHT22;5317;49.048;8.468;2022-11-15T12:06:50;16.00;84.10
10538;DHT22;5317;49.048;8.468;2022-11-15T12:09:29;16.00;84.10
10538;DHT22;5317;49.048;8.468;2022-11-15T12:12:07;16.00;84.00
10538;DHT22;5317;49.048;8.468;2022-11-15T12:14:44;16.00;83.90
10538;DHT22;5317;49.048;8.468;2022-11-15T12:17:24;16.10;83.90
10538;DHT22;5317;49.048;8.468;2022-11-15T12:19:56;16.10;83.60
10538;DHT22;5317;49.048;8.468;2022-11-15T12:22:33;16.10;83.50
10538;DHT22;5317;49.048;8.468;2022-11-15T12:25:14;16.20;83.50
10538;DHT22;5317;49.048;8.468;2022-11-15T12:27:48;16.20;83.40
10538;DHT22;5317;49.048;8.468;2022-11-15T12:30:23;16.30;82.90
10538;DHT22;5317;49.048;8.468;2022-11-15T12:32:54;16.30;82.70
10538;DHT22;5317;49.048;8.468;2022-11-15T12:35:36;16.40;82.30
10538;DHT22;5317;49.048;8.468;2022-11-15T12:38:09;16.50;81.90
10538;DHT22;5317;49.048;8.468;2022-11-15T12:40:39;16.70;82.10
10538;DHT22;5317;49.048;8.468;2022-11-15T12:43:43;17.00;81.60
10538;DHT22;5317;49.048;8.468;2022-11-15T12:49:43;18.20;78.30
10538;DHT22;5317;49.048;8.468;2022-11-15T12:52:12;18.60;76.80
10538;DHT22;5317;49.048;8.468;2022-11-15T12:55:00;18.70;75.80
10538;DHT22;5317;49.048;8.468;2022-11-15T12:57:37;18.90;74.40
10538;DHT22;5317;49.048;8.468;2022-11-15T13:00:37;18.90;74.20
10538;DHT22;5317;49.048;8.468;2022-11-15T13:03:36;18.90;73.90
10538;DHT22;5317;49.048;8.468;2022-11-15T13:06:41;19.00;73.60
10538;DHT22;5317;49.048;8.468;2022-11-15T13:18:34;19.50;71.80
10538;DHT22;5317;49.048;8.468;2022-11-15T13:21:18;19.60;71.60
10538;DHT22;5317;49.048;8.468;2022-11-15T13:24:09;19.50;71.80
10538;DHT22;5317;49.048;8.468;2022-11-15T13:26:39;19.40;72.10
10538;DHT22;5317;49.048;8.468;2022-11-15T13:29:15;19.30;73.00
10538;DHT22;5317;49.048;8.468;2022-11-15T13:31:44;19.30;72.10
10538;DHT22;5317;49.048;8.468;2022-11-15T13:34:28;19.20;72.20
10538;DHT22;5317;49.048;8.468;2022-11-15T13:36:59;19.10;72.70
10538;DHT22;5317;49.048;8.468;2022-11-15T13:39:29;19.00;73.30
10538;DHT22;5317;49.048;8.468;2022-11-15T13:41:57;18.80;73.30
10538;DHT22;5317;49.048;8.468;2022-11-15T13:44:27;18.70;73.50
10538;DHT22;5317;49.048;8.468;2022-11-15T13:47:12;18.50;73.80
10538;DHT22;5317;49.048;8.468;2022-11-15T13:49:42;18.50;74.00
10538;DHT22;5317;49.048;8.468;2022-11-15T13:52:12;18.40;74.30
10538;DHT22;5317;49.048;8.468;2022-11-15T13:54:44;18.30;74.40
10538;DHT22;5317;49.048;8.468;2022-11-15T13:57:16;18.20;74.50
10538;DHT22;5317;49.048;8.468;2022-11-15T13:59:50;18.10;74.90
10538;DHT22;5317;49.048;8.468;2022-11-15T14:02:21;18.10;75.30
10538;DHT22;5317;49.048;8.468;2022-11-15T14:04:56;18.00;75.80
10538;DHT22;5317;49.048;8.468;2022-11-15T14:07:27;18.00;76.00
10538;DHT22;5317;49.048;8.468;2022-11-15T14:09:56;17.90;76.40
10538;DHT22;5317;49.048;8.468;2022-11-15T14:12:29;17.80;76.70
10538;DHT22;5317;49.048;8.468;2022-11-15T14:14:58;17.80;78.10
10538;DHT22;5317;49.048;8.468;2022-11-15T14:17:35;17.80;77.80
10538;DHT22;5317;49.048;8.468;2022-11-15T14:22:59;17.70;78.00
10538;DHT22;5317;49.048;8.468;2022-11-15T14:25:28;17.60;78.20
10538;DHT22;5317;49.048;8.468;2022-11-15T14:28:13;17.60;78.50
10538;DHT22;5317;49.048;8.468;2022-11-15T14:30:43;17.60;78.70
10538;DHT22;5317;49.048;8.468;2022-11-15T14:33:21;17.60;78.50
10538;DHT22;5317;49.048;8.468;2022-11-15T14:35:51;17.60;78.40
10538;DHT22;5317;49.048;8.468;2022-11-15T14:38:20;17.60;78.00
10538;DHT22;5317;49.048;8.468;2022-11-15T14:40:47;17.60;77.80
10538;DHT22;5317;49.048;8.468;2022-11-15T14:43:15;17.60;77.70
10538;DHT22;5317;49.048;8.468;2022-11-15T14:45:42;17.60;77.70
10538;DHT22;5317;49.048;8.468;2022-11-15T14:48:10;17.60;77.70
10538;DHT22;5317;49.048;8.468;2022-11-15T14:50:37;17.60;78.50
10538;DHT22;5317;49.048;8.468;2022-11-15T14:53:05;17.60;77.90
10538;DHT22;5317;49.048;8.468;2022-11-15T14:55:35;17.60;78.10
10538;DHT22;5317;49.048;8.468;2022-11-15T14:58:03;17.50;78.50
10538;DHT22;5317;49.048;8.468;2022-11-15T15:00:31;17.50;78.90
10538;DHT22;5317;49.048;8.468;2022-11-15T15:02:59;17.50;79.10
10538;DHT22;5317;49.048;8.468;2022-11-15T15:05:33;17.40;79.20
10538;DHT22;5317;49.048;8.468;2022-11-15T15:08:03;17.40;79.20
10538;DHT22;5317;49.048;8.468;2022-11-15T15:10:34;17.40;79.60
10538;DHT22;5317;49.048;8.468;2022-11-15T15:13:04;17.30;79.80
10538;DHT22;5317;49.048;8.468;2022-11-15T15:15:34;17.30;79.20
10538;DHT22;5317;49.048;8.468;2022-11-15T15:18:03;17.20;79.20
10538;DHT22;5317;49.048;8.468;2022-11-15T15:20:35;17.10;80.00
10538;DHT22;5317;49.048;8.468;2022-11-15T15:23:04;17.00;80.30
10538;DHT22;5317;49.048;8.468;2022-11-15T15:25:34;17.00;80.40
10538;DHT22;5317;49.048;8.468;2022-11-15T15:28:02;17.00;80.50
10538;DHT22;5317;49.048;8.468;2022-11-15T15:30:30;17.00;80.40
10538;DHT22;5317;49.048;8.468;2022-11-15T15:32:57;17.00;80.20
10538;DHT22;5317;49.048;8.468;2022-11-15T15:35:29;17.00;80.20
10538;DHT22;5317;49.048;8.468;2022-11-15T15:37:58;16.90;80.10
10538;DHT22;5317;49.048;8.468;2022-11-15T15:40:27;16.90;79.90
10538;DHT22;5317;49.048;8.468;2022-11-15T15:42:58;16.90;79.80
10538;DHT22;5317;49.048;8.468;2022-11-15T15:45:26;16.90;79.80
10538;DHT22;5317;49.048;8.468;2022-11-15T15:47:53;16.90;80.10
10538;DHT22;5317;49.048;8.468;2022-11-15T15:50:25;16.90;80.10
10538;DHT22;5317;49.048;8.468;2022-11-15T15:52:55;16.90;80.40
10538;DHT22;5317;49.048;8.468;2022-11-15T15:55:23;16.80;80.70
10538;DHT22;5317;49.048;8.468;2022-11-15T15:57:51;16.80;80.80
10538;DHT22;5317;49.048;8.468;2022-11-15T16:00:22;16.80;80.80
10538;DHT22;5317;49.048;8.468;2022-11-15T16:02:50;16.70;80.80
10538;DHT22;5317;49.048;8.468;2022-11-15T16:05:18;16.70;81.00
10538;DHT22;5317;49.048;8.468;2022-11-15T16:07:46;16.70;80.80
10538;DHT22;5317;49.048;8.468;2022-11-15T16:10:18;16.70;81.10
10538;DHT22;5317;49.048;8.468;2022-11-15T16:12:48;16.60;81.10
10538;DHT22;5317;49.048;8.468;2022-11-15T16:15:15;16.60;81.10
10538;DHT22;5317;49.048;8.468;2022-11-15T16:17:47;16.60;81.10
10538;DHT22;5317;49.048;8.468;2022-11-15T16:20:35;16.60;81.30
10538;DHT22;5317;49.048;8.468;2022-11-15T16:23:05;16.60;81.50
10538;DHT22;5317;49.048;8.468;2022-11-15T16:25:38;16.50;82.20
10538;DHT22;5317;49.048;8.468;2022-11-15T16:28:19;16.50;81.40
10538;DHT22;5317;49.048;8.468;2022-11-15T16:30:48;16.50;81.40
10538;DHT22;5317;49.048;8.468;2022-11-15T16:33:18;16.50;81.40
10538;DHT22;5317;49.048;8.468;2022-11-15T16:35:45;16.50;81.40
10538;DHT22;5317;49.048;8.468;2022-11-15T16:38:14;16.50;81.30